Time;durP1;ratioP1;P1;durP2;ratioP2;P2;SDS_P1;SDS_P2;PMS_P1;PMS_P2;Temp;Humidity;BMP_temperature;BMP_pressure;BME280_temperature;BME280_humidity;BME280_pressure;Samples;Min_cycle;Max_cycle;Signal;HPM_P1;HPM_P2
2024/03/28 00:01:59;;;;;;;;;;;8.20;99.90;;;;;;8373601;28;20592;-69
2024/03/28 00:06:00;;;;;;;;;;;8.20;99.90;;;;;;8358054;28;19931;-69
2024/03/28 00:10:00;;;;;;;;;;;8.30;99.90;;;;;;8371408;28;19920;-69
2024/03/28 00:14:01;;;;;;;;;;;8.30;99.90;;;;;;8371846;28;20375;-69
2024/03/28 00:18:02;;;;;;;;;;;8.30;99.90;;;;;;8353733;28;20020;-69
2024/03/28 00:22:02;;;;;;;;;;;8.30;99.90;;;;;;8374126;28;19935;-69
2024/03/28 00:26:04;;;;;;;;;;;8.30;99.90;;;;;;8371772;28;19932;-69
2024/03/28 00:30:05;;;;;;;;;;;8.40;99.90;;;;;;8369552;28;19928;-68
2024/03/28 00:34:06;;;;;;;;;;;8.40;99.90;;;;;;8375577;28;20368;-69
2024/03/28 00:38:07;;;;;;;;;;;8.40;99.90;;;;;;8373379;28;19935;-69
2024/03/28 00:42:07;;;;;;;;;;;8.40;99.90;;;;;;8370791;28;19972;-69
2024/03/28 00:46:08;;;;;;;;;;;8.40;99.90;;;;;;8368183;28;20356;-69
2024/03/28 00:50:09;;;;;;;;;;;8.40;99.90;;;;;;8355572;28;19920;-69
2024/03/28 00:54:10;;;;;;;;;;;8.40;99.90;;;;;;8371407;28;20009;-69
2024/03/28 00:58:14;;;;;;;;;;;8.40;99.90;;;;;;8367554;28;19935;-69
2024/03/28 01:02:15;;;;;;;;;;;8.40;99.90;;;;;;8379395;28;19920;-69
2024/03/28 01:06:16;;;;;;;;;;;8.40;99.90;;;;;;8376843;28;19927;-69
2024/03/28 01:10:17;;;;;;;;;;;8.40;99.90;;;;;;8381128;28;19920;-69
2024/03/28 01:14:18;;;;;;;;;;;8.30;99.90;;;;;;8356733;28;19920;-69
2024/03/28 01:18:18;;;;;;;;;;;8.20;99.90;;;;;;8353396;28;20023;-69
2024/03/28 01:22:19;;;;;;;;;;;8.20;99.90;;;;;;8375012;28;19934;-69
2024/03/28 01:26:20;;;;;;;;;;;8.20;99.90;;;;;;8378612;28;19967;-69
2024/03/28 01:30:20;;;;;;;;;;;8.10;99.90;;;;;;8360089;28;19924;-69
2024/03/28 01:34:21;;;;;;;;;;;8.00;99.90;;;;;;8377947;28;19928;-69
2024/03/28 01:38:22;;;;;;;;;;;8.00;99.90;;;;;;8361427;28;19986;-69
2024/03/28 01:42:23;;;;;;;;;;;8.00;99.90;;;;;;8377905;28;19967;-69
2024/03/28 01:46:24;;;;;;;;;;;8.00;99.90;;;;;;8375641;28;19932;-69
2024/03/28 01:50:24;;;;;;;;;;;8.00;99.90;;;;;;8376906;28;20349;-69
2024/03/28 01:54:25;;;;;;;;;;;7.90;99.90;;;;;;8362465;28;20492;-69
2024/03/28 01:58:26;;;;;;;;;;;7.80;99.90;;;;;;8376477;28;19978;-69
2024/03/28 02:02:28;;;;;;;;;;;7.90;99.90;;;;;;8386969;28;19989;-69
2024/03/28 02:06:29;;;;;;;;;;;7.80;99.90;;;;;;8395174;28;19924;-69
2024/03/28 02:10:29;;;;;;;;;;;7.80;99.90;;;;;;8375183;28;19977;-69
2024/03/28 02:14:30;;;;;;;;;;;7.80;99.90;;;;;;8368051;28;19935;-69
2024/03/28 02:18:31;;;;;;;;;;;7.70;99.90;;;;;;8375785;28;19932;-69
2024/03/28 02:22:32;;;;;;;;;;;7.60;99.90;;;;;;8376681;28;19928;-69
2024/03/28 02:26:33;;;;;;;;;;;7.60;99.90;;;;;;8361297;28;20413;-69
2024/03/28 02:30:33;;;;;;;;;;;7.60;99.90;;;;;;8373467;28;21594;-69
2024/03/28 02:34:34;;;;;;;;;;;7.50;99.90;;;;;;8360400;28;20340;-69
2024/03/28 02:43:32;;;;;;;;;;;7.40;99.90;;;;;;8390915;28;19923;-69
2024/03/28 02:47:33;;;;;;;;;;;7.40;99.90;;;;;;8376283;28;19924;-69
2024/03/28 02:51:34;;;;;;;;;;;7.30;99.90;;;;;;8375127;28;19942;-69
2024/03/28 02:55:35;;;;;;;;;;;7.40;99.90;;;;;;8374634;28;19928;-69
2024/03/28 02:59:35;;;;;;;;;;;7.40;99.90;;;;;;8356424;28;19930;-69
2024/03/28 03:03:36;;;;;;;;;;;7.40;99.90;;;;;;8380481;28;19967;-69
2024/03/28 03:07:37;;;;;;;;;;;7.40;99.90;;;;;;8383438;28;19932;-69
2024/03/28 03:11:38;;;;;;;;;;;7.40;99.90;;;;;;8362603;28;19920;-69
2024/03/28 03:15:39;;;;;;;;;;;7.40;99.90;;;;;;8375391;28;20286;-69
2024/03/28 03:19:40;;;;;;;;;;;7.40;99.90;;;;;;8356716;28;20082;-69
2024/03/28 03:23:48;;;;;;;;;;;7.40;99.90;;;;;;8357989;28;20684;-69
2024/03/28 03:36:28;;;;;;;;;;;7.40;99.90;;;;;;8373585;28;20387;-69
2024/03/28 03:40:28;;;;;;;;;;;7.50;99.90;;;;;;8355153;28;20357;-69
2024/03/28 03:44:29;;;;;;;;;;;7.40;99.90;;;;;;8360507;28;20654;-69
2024/03/28 03:48:30;;;;;;;;;;;7.40;99.90;;;;;;8371751;28;20422;-69
2024/03/28 03:52:30;;;;;;;;;;;7.40;99.90;;;;;;8374915;28;20298;-69
2024/03/28 03:56:31;;;;;;;;;;;7.50;99.90;;;;;;8371900;28;20333;-69
2024/03/28 04:00:32;;;;;;;;;;;7.50;99.90;;;;;;8373842;28;19999;-69
2024/03/28 04:04:33;;;;;;;;;;;7.50;99.90;;;;;;8371200;28;19930;-69
2024/03/28 04:08:35;;;;;;;;;;;7.50;99.90;;;;;;8370743;28;19920;-69
2024/03/28 04:12:36;;;;;;;;;;;7.50;99.90;;;;;;8374932;28;19950;-69
2024/03/28 04:16:37;;;;;;;;;;;7.50;99.90;;;;;;8371767;28;19928;-69
2024/03/28 04:20:38;;;;;;;;;;;7.60;99.90;;;;;;8373122;28;20016;-69
2024/03/28 04:24:39;;;;;;;;;;;7.60;99.90;;;;;;8374718;28;19961;-69
2024/03/28 04:28:40;;;;;;;;;;;7.60;99.90;;;;;;8355516;28;20062;-69
2024/03/28 04:32:41;;;;;;;;;;;7.60;99.90;;;;;;8370710;28;19956;-69
2024/03/28 04:36:41;;;;;;;;;;;7.60;99.90;;;;;;8373739;28;24378;-68
2024/03/28 04:40:42;;;;;;;;;;;7.60;99.90;;;;;;8372141;28;19967;-69
2024/03/28 04:44:43;;;;;;;;;;;7.60;99.90;;;;;;8372922;28;19985;-69
2024/03/28 04:48:43;;;;;;;;;;;7.60;99.90;;;;;;8356410;28;20023;-69
2024/03/28 04:52:45;;;;;;;;;;;7.60;99.90;;;;;;8354893;28;19925;-69
2024/03/28 04:56:45;;;;;;;;;;;7.60;99.90;;;;;;8368951;28;19920;-69
2024/03/28 05:00:46;;;;;;;;;;;7.60;99.90;;;;;;8375992;28;19919;-69
2024/03/28 05:04:47;;;;;;;;;;;7.60;99.90;;;;;;8392215;28;20102;-69
2024/03/28 05:08:48;;;;;;;;;;;7.60;99.90;;;;;;8389713;28;20011;-69
2024/03/28 05:12:50;;;;;;;;;;;7.60;99.90;;;;;;8397975;28;19919;-69
2024/03/28 05:16:51;;;;;;;;;;;7.60;99.90;;;;;;8384927;28;19921;-68
2024/03/28 05:20:52;;;;;;;;;;;7.60;99.90;;;;;;8390200;28;19923;-69
2024/03/28 05:24:55;;;;;;;;;;;7.60;99.90;;;;;;8374983;28;19931;-69
2024/03/28 05:28:55;;;;;;;;;;;7.60;99.90;;;;;;8378122;28;19929;-69
2024/03/28 05:32:56;;;;;;;;;;;7.60;99.90;;;;;;8396878;28;19981;-69
2024/03/28 05:36:57;;;;;;;;;;;7.60;99.90;;;;;;8394464;28;20012;-69
2024/03/28 05:40:58;;;;;;;;;;;7.60;99.90;;;;;;8399372;28;19974;-69
2024/03/28 05:44:58;;;;;;;;;;;7.60;99.90;;;;;;8399885;28;20010;-69
2024/03/28 05:48:59;;;;;;;;;;;7.60;99.90;;;;;;8404583;28;19931;-69
2024/03/28 05:53:00;;;;;;;;;;;7.60;99.90;;;;;;8399199;28;19927;-69
2024/03/28 05:57:01;;;;;;;;;;;7.60;99.90;;;;;;8405055;28;20007;-69
2024/03/28 06:01:01;;;;;;;;;;;7.60;99.90;;;;;;8405983;28;20023;-68
2024/03/28 06:05:02;;;;;;;;;;;7.60;99.90;;;;;;8379843;28;20650;-70
2024/03/28 06:09:03;;;;;;;;;;;7.60;99.90;;;;;;8385865;28;19938;-70
2024/03/28 06:13:04;;;;;;;;;;;7.50;99.90;;;;;;8382620;28;20279;-70
2024/03/28 06:17:05;;;;;;;;;;;7.50;99.90;;;;;;8384354;28;19983;-70
2024/03/28 06:21:06;;;;;;;;;;;7.50;99.90;;;;;;8390017;28;19943;-70
2024/03/28 06:25:07;;;;;;;;;;;7.50;99.90;;;;;;8386899;28;20006;-70
2024/03/28 06:29:07;;;;;;;;;;;7.60;99.90;;;;;;8391911;28;19927;-69
2024/03/28 06:33:08;;;;;;;;;;;7.70;99.90;;;;;;8394472;28;19946;-70
2024/03/28 06:37:09;;;;;;;;;;;7.80;99.90;;;;;;8387950;28;19962;-71
2024/03/28 06:41:10;;;;;;;;;;;7.90;99.90;;;;;;8387081;28;19931;-70
2024/03/28 06:45:10;;;;;;;;;;;8.10;99.90;;;;;;8375866;28;19968;-70
2024/03/28 06:49:11;;;;;;;;;;;8.20;99.90;;;;;;8392164;28;19921;-70
2024/03/28 06:53:14;;;;;;;;;;;8.40;99.90;;;;;;8394348;28;19920;-70
2024/03/28 06:57:15;;;;;;;;;;;8.40;99.90;;;;;;8391630;28;19920;-70
2024/03/28 07:01:16;;;;;;;;;;;8.40;99.90;;;;;;8394848;28;19920;-70
2024/03/28 07:05:17;;;;;;;;;;;8.40;99.90;;;;;;8375523;28;20010;-70
2024/03/28 07:09:17;;;;;;;;;;;8.40;99.90;;;;;;8374028;28;19966;-70
2024/03/28 07:13:18;;;;;;;;;;;8.40;99.90;;;;;;8393540;28;19927;-70
2024/03/28 07:17:19;;;;;;;;;;;8.50;99.90;;;;;;8387166;28;20067;-70
2024/03/28 07:21:20;;;;;;;;;;;8.50;99.90;;;;;;8390868;28;19931;-70
2024/03/28 07:25:20;;;;;;;;;;;8.50;99.90;;;;;;8391310;28;19966;-70
2024/03/28 07:29:21;;;;;;;;;;;8.60;99.90;;;;;;8391190;28;19927;-70
2024/03/28 07:33:22;;;;;;;;;;;8.60;99.90;;;;;;8371321;28;20053;-70
2024/03/28 07:37:23;;;;;;;;;;;8.60;99.90;;;;;;8390136;28;19924;-70
2024/03/28 07:41:24;;;;;;;;;;;8.70;99.90;;;;;;8400215;28;19924;-70
2024/03/28 07:45:25;;;;;;;;;;;8.60;99.90;;;;;;8389299;28;20419;-70
2024/03/28 07:49:26;;;;;;;;;;;8.60;99.90;;;;;;8384485;28;20295;-70
2024/03/28 07:53:27;;;;;;;;;;;8.60;99.90;;;;;;8387046;28;20050;-70
2024/03/28 07:57:28;;;;;;;;;;;8.50;99.90;;;;;;8372399;28;19920;-70
2024/03/28 08:01:29;;;;;;;;;;;8.50;99.90;;;;;;8389629;28;20003;-70
2024/03/28 08:05:30;;;;;;;;;;;8.50;99.90;;;;;;8370697;28;19956;-70
2024/03/28 08:09:31;;;;;;;;;;;8.50;99.90;;;;;;8372156;28;20006;-70
2024/03/28 08:13:32;;;;;;;;;;;8.40;99.90;;;;;;8385725;28;20366;-70
2024/03/28 08:17:33;;;;;;;;;;;8.40;99.90;;;;;;8370771;28;19920;-70
2024/03/28 08:21:34;;;;;;;;;;;8.30;99.90;;;;;;8372490;28;20340;-69
2024/03/28 08:25:35;;;;;;;;;;;8.20;99.90;;;;;;8368744;28;19920;-70
2024/03/28 08:29:35;;;;;;;;;;;8.10;99.90;;;;;;8389388;28;20378;-70
2024/03/28 08:33:36;;;;;;;;;;;7.90;99.90;;;;;;8398384;28;19927;-69
2024/03/28 08:37:55;;;;;;;;;;;7.80;99.90;;;;;;8394343;28;19935;-70
2024/03/28 08:41:56;;;;;;;;;;;7.80;99.90;;;;;;8369264;28;20011;-70
2024/03/28 08:45:57;;;;;;;;;;;7.70;99.90;;;;;;8391175;28;20325;-70
2024/03/28 08:49:58;;;;;;;;;;;7.70;99.90;;;;;;8390954;28;19982;-70
2024/03/28 08:53:59;;;;;;;;;;;7.70;99.90;;;;;;8379986;28;20010;-70
2024/03/28 08:58:00;;;;;;;;;;;7.70;99.90;;;;;;8375955;28;19975;-70
2024/03/28 09:02:00;;;;;;;;;;;7.70;99.90;;;;;;8391015;28;19999;-70
2024/03/28 09:06:04;;;;;;;;;;;7.70;99.90;;;;;;8409560;28;19970;-70
2024/03/28 09:10:05;;;;;;;;;;;7.80;99.90;;;;;;8408237;28;19930;-70
2024/03/28 09:14:06;;;;;;;;;;;7.90;99.90;;;;;;8393943;28;19923;-70
2024/03/28 09:18:07;;;;;;;;;;;8.00;99.90;;;;;;8410062;28;19923;-69
2024/03/28 09:22:08;;;;;;;;;;;8.00;99.90;;;;;;8407674;28;19924;-69
2024/03/28 09:26:08;;;;;;;;;;;8.00;99.90;;;;;;8410867;28;19924;-70
2024/03/28 09:30:11;;;;;;;;;;;8.00;99.90;;;;;;8408619;28;19951;-69
2024/03/28 09:34:11;;;;;;;;;;;8.10;99.90;;;;;;8411554;28;20010;-70
2024/03/28 09:38:15;;;;;;;;;;;8.10;99.90;;;;;;8410340;28;19955;-70
2024/03/28 09:42:18;;;;;;;;;;;8.00;99.90;;;;;;8380429;28;19927;-69
2024/03/28 09:46:19;;;;;;;;;;;7.90;99.90;;;;;;8409206;28;20038;-69
2024/03/28 09:50:22;;;;;;;;;;;7.90;99.90;;;;;;8409452;28;20050;-70
2024/03/28 09:54:23;;;;;;;;;;;7.80;99.90;;;;;;8408263;28;22298;-69
2024/03/28 09:58:24;;;;;;;;;;;7.80;99.90;;;;;;8416788;28;20236;-70
2024/03/28 10:02:44;;;;;;;;;;;7.70;99.90;;;;;;8404311;28;20397;-70
2024/03/28 10:06:55;;;;;;;;;;;7.60;99.90;;;;;;8409684;28;20006;-70
2024/03/28 10:10:57;;;;;;;;;;;7.60;99.90;;;;;;8406138;28;20030;-70
2024/03/28 10:14:58;;;;;;;;;;;7.70;99.90;;;;;;8392364;28;19930;-70
2024/03/28 10:19:00;;;;;;;;;;;7.70;99.90;;;;;;8408388;28;19927;-69
2024/03/28 10:23:01;;;;;;;;;;;7.80;99.90;;;;;;8390886;28;20007;-70
2024/03/28 10:27:15;;;;;;;;;;;7.90;99.90;;;;;;8409040;28;20007;-70
2024/03/28 10:31:22;;;;;;;;;;;7.90;99.90;;;;;;8392924;28;20015;-70
2024/03/28 10:35:23;;;;;;;;;;;7.90;99.90;;;;;;8389914;28;19930;-70
2024/03/28 10:39:24;;;;;;;;;;;7.80;99.90;;;;;;8409109;28;19924;-69
2024/03/28 10:43:25;;;;;;;;;;;7.80;99.90;;;;;;8392482;28;20007;-69
2024/03/28 10:47:29;;;;;;;;;;;7.90;99.90;;;;;;8408684;28;20015;-69
2024/03/28 10:51:39;;;;;;;;;;;8.00;99.90;;;;;;8392663;28;19999;-69
2024/03/28 10:55:42;;;;;;;;;;;8.10;99.90;;;;;;8389317;28;19930;-70
2024/03/28 10:59:43;;;;;;;;;;;8.30;99.90;;;;;;8407019;28;19999;-69
2024/03/28 11:03:45;;;;;;;;;;;8.40;99.90;;;;;;8389261;28;19927;-70
2024/03/28 11:07:46;;;;;;;;;;;8.60;99.90;;;;;;8407183;28;20018;-70
2024/03/28 11:11:47;;;;;;;;;;;8.80;99.90;;;;;;8404576;28;20282;-70
2024/03/28 11:15:58;;;;;;;;;;;9.00;99.90;;;;;;8407597;28;20015;-69
2024/03/28 11:20:03;;;;;;;;;;;9.10;99.90;;;;;;8408969;28;20045;-69
2024/03/28 11:24:28;;;;;;;;;;;9.20;99.90;;;;;;8391157;28;19933;-70
2024/03/28 11:28:29;;;;;;;;;;;9.30;99.90;;;;;;8405436;28;19920;-69
2024/03/28 11:32:30;;;;;;;;;;;9.40;99.90;;;;;;8391254;28;20023;-69
2024/03/28 11:36:32;;;;;;;4.75;2.20;;;9.50;99.90;;;;;;8378424;28;19920;-70
2024/03/28 11:40:34;;;;;;;7.00;2.00;;;9.60;99.90;;;;;;8394772;28;20490;-70
2024/03/28 11:44:36;;;;;;;;;;;9.60;99.90;;;;;;8402268;28;20019;-70
2024/03/28 11:48:36;;;;;;;;;;;9.60;99.90;;;;;;8399888;28;20006;-70
2024/03/28 11:52:37;;;;;;;;;;;9.70;99.90;;;;;;8407179;28;19967;-70
2024/03/28 11:56:42;;;;;;;;;;;9.90;99.90;;;;;;8404693;28;20268;-70
2024/03/28 12:00:43;;;;;;;;;;;10.00;99.90;;;;;;8398860;28;20015;-70
2024/03/28 12:04:44;;;;;;;4.32;1.65;;;10.10;99.90;;;;;;8380160;28;20340;-70
2024/03/28 12:08:49;;;;;;;;;;;10.30;99.90;;;;;;8388795;28;20438;-70
2024/03/28 12:12:50;;;;;;;;;;;10.40;99.90;;;;;;8373040;28;20334;-70
2024/03/28 12:16:50;;;;;;;;;;;10.60;99.90;;;;;;8385508;28;19920;-70
2024/03/28 12:21:01;;;;;;;;;;;10.70;99.90;;;;;;8389305;28;19974;-69
2024/03/28 12:25:02;;;;;;;;;;;10.90;99.90;;;;;;8392697;28;20014;-70
2024/03/28 12:29:03;;;;;;;;;;;11.10;99.90;;;;;;8370859;28;20431;-70
2024/03/28 12:33:05;;;;;;;;;;;11.30;99.90;;;;;;8373111;28;20329;-70
2024/03/28 12:37:07;;;;;;;;;;;11.50;99.90;;;;;;8407519;28;19989;-69
2024/03/28 12:41:16;;;;;;;;;;;11.60;99.90;;;;;;8382736;28;20017;-70
2024/03/28 12:45:18;;;;;;;;;;;11.90;99.90;;;;;;8389234;28;20011;-70
2024/03/28 12:49:19;;;;;;;;;;;11.90;99.90;;;;;;8389785;28;20415;-70
2024/03/28 12:53:20;;;;;;;;;;;11.90;99.90;;;;;;8368706;28;20291;-70
2024/03/28 12:57:21;;;;;;;;;;;12.00;99.90;;;;;;8366546;28;19920;-70
2024/03/28 13:01:21;;;;;;;;;;;12.00;99.90;;;;;;8379185;28;19991;-69
2024/03/28 13:05:23;;;;;;;;;;;11.90;99.90;;;;;;8366632;28;21223;-70
2024/03/28 13:09:24;;;;;;;;;;;12.10;99.90;;;;;;8382892;28;20383;-70
2024/03/28 13:13:25;;;;;;;;;;;12.10;99.90;;;;;;8366944;28;20267;-70
2024/03/28 13:17:26;;;;;;;;;;;12.30;99.90;;;;;;8384729;28;19920;-70
2024/03/28 13:21:30;;;;;;;;;;;12.30;99.90;;;;;;8379675;28;20281;-70
2024/03/28 13:25:31;;;;;;;;;;;12.40;99.90;;;;;;8373106;28;20019;-70
2024/03/28 13:29:31;;;;;;;;;;;12.50;99.90;;;;;;8393751;28;20368;-70
2024/03/28 13:33:32;;;;;;;;;;;12.50;99.90;;;;;;8394942;28;19966;-70
2024/03/28 13:37:33;;;;;;;;;;;12.30;99.90;;;;;;8389726;28;19924;-70
2024/03/28 13:41:34;;;;;;;;;;;12.30;99.90;;;;;;8381030;28;20019;-70
2024/03/28 13:45:35;;;;;;;;;;;12.20;99.90;;;;;;8374042;28;19927;-70
2024/03/28 13:49:35;;;;;;;;;;;12.20;99.90;;;;;;8389095;28;20490;-70
2024/03/28 13:53:45;;;;;;;;;;;12.30;99.90;;;;;;8377103;28;20344;-70
2024/03/28 13:57:46;;;;;;;;;;;12.40;99.90;;;;;;8386159;28;19920;-70
2024/03/28 14:01:47;;;;;;;;;;;12.70;99.90;;;;;;8383710;28;20011;-70
2024/03/28 14:05:48;;;;;;;;;;;12.80;99.90;;;;;;8371439;28;19920;-70
2024/03/28 14:09:48;;;;;;;;;;;12.70;99.90;;;;;;8367731;28;20220;-70
2024/03/28 14:13:49;;;;;;;;;;;13.20;99.90;;;;;;8379607;28;20023;-70
2024/03/28 14:18:03;;;;;;;;;;;14.00;99.90;;;;;;8394888;28;19969;-70
2024/03/28 14:22:04;;;;;;;;;;;13.90;99.90;;;;;;8391809;28;20007;-70
2024/03/28 14:26:05;;;;;;;;;;;13.20;99.90;;;;;;8372490;28;19928;-70
2024/03/28 14:30:06;;;;;;;;;;;12.80;99.90;;;;;;8365670;28;19999;-70
2024/03/28 14:34:07;;;;;;;;;;;12.40;99.90;;;;;;8371797;28;20385;-69
2024/03/28 14:38:07;;;;;;;;;;;12.10;99.90;;;;;;8385550;28;19943;-70
2024/03/28 14:42:08;;;;;;;;;;;12.10;99.90;;;;;;8375824;28;19921;-69
2024/03/28 14:46:10;;;;;;;;;;;12.20;99.90;;;;;;8386303;28;20018;-70
2024/03/28 14:50:11;;;;;;;;;;;12.20;99.90;;;;;;8386489;28;19997;-70
2024/03/28 14:54:11;;;;;;;;;;;12.20;99.90;;;;;;8388530;28;19920;-70
2024/03/28 14:58:12;;;;;;;;;;;12.40;99.90;;;;;;8389256;28;20836;-70
2024/03/28 15:02:13;;;;;;;;;;;12.40;99.90;;;;;;8385042;28;20074;-71
2024/03/28 15:06:13;;;;;;;;;;;12.40;99.90;;;;;;8405732;28;19920;-71
2024/03/28 15:10:14;;;;;;;;;;;12.40;99.90;;;;;;8390940;28;19921;-70
2024/03/28 15:14:16;;;;;;;;;;;12.20;99.90;;;;;;8404986;28;20015;-70
2024/03/28 15:18:31;;;;;;;;;;;12.10;99.90;;;;;;8385572;28;19921;-70
2024/03/28 15:22:32;;;;;;;;;;;11.90;99.90;;;;;;8402279;28;20309;-70
2024/03/28 15:26:33;;;;;;;;;;;11.80;99.90;;;;;;8409966;28;19924;-70
2024/03/28 15:30:34;;;;;;;;;;;11.70;99.90;;;;;;8388237;28;19936;-70
2024/03/28 15:34:35;;;;;;;;;;;11.50;99.90;;;;;;8402573;28;19920;-70
2024/03/28 15:38:35;;;;;;;;;;;11.30;99.90;;;;;;8402453;28;19920;-70
2024/03/28 15:42:37;;;;;;;;;;;11.20;99.90;;;;;;8401152;28;19920;-70
2024/03/28 15:46:37;;;;;;;;;;;11.10;99.90;;;;;;8394040;28;20255;-70
2024/03/28 15:50:45;;;;;;;;;;;11.10;99.90;;;;;;8391225;28;20010;-70
2024/03/28 15:54:45;;;;;;;;;;;11.10;99.90;;;;;;8382880;28;19973;-70
2024/03/28 15:58:46;;;;;;;;;;;11.00;99.90;;;;;;8409183;28;19928;-70
2024/03/28 16:02:47;;;;;;;;;;;11.00;99.90;;;;;;8388147;28;19955;-70
2024/03/28 16:06:48;;;;;;;;;;;11.00;99.90;;;;;;8370447;28;19920;-70
2024/03/28 16:10:53;;;;;;;;;;;11.00;99.90;;;;;;8394874;28;20430;-70
2024/03/28 16:14:55;;;;;;;;;;;11.00;99.90;;;;;;8395751;28;19999;-70
2024/03/28 16:18:56;;;;;;;;;;;11.00;99.90;;;;;;8403050;28;20410;-70
2024/03/28 16:22:56;;;;;;;;;;;11.10;99.90;;;;;;8397626;28;20317;-70
2024/03/28 16:26:57;;;;;;;;;;;11.10;99.90;;;;;;8401150;28;19926;-70
2024/03/28 16:31:04;;;;;;;;;;;11.20;99.90;;;;;;8405544;28;19927;-70
2024/03/28 16:35:06;;;;;;;;;;;11.30;99.90;;;;;;8387683;28;19927;-70
2024/03/28 16:39:06;;;;;;;;;;;11.50;99.90;;;;;;8404787;28;20010;-70
2024/03/28 16:43:13;;;;;;;;;;;11.80;99.90;;;;;;8370473;28;19950;-70
2024/03/28 16:47:20;;;;;;;;;;;12.40;99.90;;;;;;8381055;28;20344;-70
2024/03/28 16:51:25;;;;;;;;;;;12.90;99.90;;;;;;8371987;28;19977;-69
2024/03/28 16:55:25;;;;;;;;;;;13.40;99.90;;;;;;8381848;28;20120;-70
2024/03/28 16:59:26;;;;;;;;;;;13.60;99.90;;;;;;8359956;28;20367;-69
2024/03/28 17:03:27;;;;;;;;;;;13.50;99.90;;;;;;8367491;28;19924;-69
2024/03/28 17:07:28;;;;;;;;;;;13.30;99.90;;;;;;8390814;28;19978;-69
2024/03/28 17:11:29;;;;;;;;;;;13.20;99.90;;;;;;8393256;28;19927;-69
2024/03/28 17:15:30;;;;;;;;;;;13.00;99.90;;;;;;8358106;28;19959;-69
2024/03/28 17:19:31;;;;;;;;;;;13.00;99.90;;;;;;8375837;28;20073;-69
2024/03/28 17:23:32;;;;;;;;;;;13.20;99.90;;;;;;8389772;28;19989;-70
2024/03/28 17:27:33;;;;;;;;;;;13.10;99.90;;;;;;8371903;28;20634;-69
2024/03/28 17:31:33;;;;;;;;;;;12.80;99.90;;;;;;8389733;28;20407;-70
2024/03/28 17:35:34;;;;;;;;;;;13.00;99.90;;;;;;8385959;28;20015;-69
2024/03/28 17:39:35;;;;;;;;;;;13.40;99.90;;;;;;8376457;28;19921;-69
2024/03/28 17:43:35;;;;;;;;;;;13.60;99.90;;;;;;8371920;28;20328;-70
2024/03/28 17:47:36;;;;;;;;;;;13.40;99.90;;;;;;8372580;28;20017;-70
2024/03/28 17:51:38;;;;;;;;;;;13.10;99.90;;;;;;8357751;28;20032;-69
2024/03/28 17:55:39;;;;;;;4.65;1.00;;;12.80;99.90;;;;;;8368290;28;19920;-69
2024/03/28 17:59:42;;;;;;;2.78;1.02;;;12.40;99.90;;;;;;8368821;28;20109;-70
2024/03/28 18:03:43;;;;;;;4.05;1.10;;;12.20;99.90;;;;;;8389887;28;20052;-69
2024/03/28 18:07:44;;;;;;;2.28;0.77;;;12.00;99.90;;;;;;8365684;28;20053;-69
2024/03/28 18:11:45;;;;;;;3.88;1.00;;;11.80;99.90;;;;;;8368150;28;20067;-69
2024/03/28 18:15:47;;;;;;;3.33;1.00;;;11.60;99.90;;;;;;8385771;28;20059;-69
2024/03/28 18:19:47;;;;;;;3.88;0.98;;;11.50;99.90;;;;;;8371711;28;20131;-69
2024/03/28 18:23:48;;;;;;;3.10;0.95;;;11.30;99.90;;;;;;8355021;28;20045;-69
2024/03/28 18:27:49;;;;;;;2.50;0.90;;;11.30;99.90;;;;;;8373089;28;20056;-69
2024/03/28 18:31:50;;;;;;;3.00;0.82;;;11.20;99.90;;;;;;8367412;28;20048;-69
2024/03/28 18:41:13;;;;;;;3.45;1.20;;;11.10;99.90;;;;;;8388687;28;20039;-69
2024/03/28 18:45:14;;;;;;;4.38;1.20;;;11.10;99.90;;;;;;8355636;28;20052;-69
2024/03/28 18:49:15;;;;;;;3.08;1.10;;;11.00;99.90;;;;;;8382428;28;20381;-69
2024/03/28 18:53:16;;;;;;;2.17;0.80;;;11.00;99.90;;;;;;8368451;28;20608;-69
2024/03/28 18:57:17;;;;;;;3.00;0.80;;;11.00;99.90;;;;;;8369916;28;20048;-69
2024/03/28 19:01:49;;;;;;;1.88;0.80;;;10.90;99.90;;;;;;8402293;28;20537;-69
2024/03/28 19:06:16;;;;;;;3.83;0.90;;;10.90;99.90;;;;;;8364806;28;20057;-69
2024/03/28 19:10:17;;;;;;;2.83;1.00;;;10.80;99.90;;;;;;8368843;28;20059;-69
2024/03/28 19:14:18;;;;;;;2.92;0.90;;;10.80;99.90;;;;;;8366634;28;20126;-69
2024/03/28 19:18:21;;;;;;;;;;;10.70;99.90;;;;;;8374642;28;20040;-69
2024/03/28 19:22:22;;;;;;;;;;;10.60;99.90;;;;;;8368020;28;19951;-69
2024/03/28 19:26:23;;;;;;;;;;;10.60;99.90;;;;;;8374925;28;19924;-70
2024/03/28 19:30:24;;;;;;;;;;;10.50;99.90;;;;;;8371859;28;20009;-70
2024/03/28 19:34:25;;;;;;;;;;;10.50;99.90;;;;;;8372038;28;19972;-70
2024/03/28 19:38:26;;;;;;;;;;;10.50;99.90;;;;;;8377267;28;19973;-70
2024/03/28 19:42:30;;;;;;;;;;;10.50;99.90;;;;;;8368598;28;20405;-70
2024/03/28 19:46:30;;;;;;;;;;;10.50;99.90;;;;;;8373374;28;19924;-70
2024/03/28 19:50:34;;;;;;;;;;;10.60;99.90;;;;;;8368466;28;20315;-70
2024/03/28 19:54:34;;;;;;;;;;;10.60;99.90;;;;;;8378892;28;19935;-70
2024/03/28 19:58:35;;;;;;;;;;;10.70;99.90;;;;;;8398554;28;19920;-70
2024/03/28 20:02:40;;;;;;;;;;;10.70;99.90;;;;;;8381907;28;19923;-70
2024/03/28 20:06:40;;;;;;;;;;;10.70;99.90;;;;;;8316888;28;1089673;-70
2024/03/28 20:10:57;;;;;;;;;;;10.80;99.90;;;;;;8385922;28;19929;-70
2024/03/28 20:14:58;;;;;;;;;;;10.80;99.90;;;;;;8370317;28;20228;-70
2024/03/28 20:18:58;;;;;;;;;;;10.80;99.90;;;;;;8361310;28;20465;-70
2024/03/28 20:22:59;;;;;;;;;;;10.70;99.90;;;;;;8374532;28;20719;-71
2024/03/28 20:27:00;;;;;;;;;;;10.70;99.90;;;;;;8388779;28;20014;-70
2024/03/28 20:31:04;;;;;;;;;;;10.70;99.90;;;;;;8366257;28;20039;-70
2024/03/28 20:35:05;;;;;;;;;;;10.70;99.90;;;;;;8362874;28;19924;-70
2024/03/28 20:39:05;;;;;;;;;;;10.60;99.90;;;;;;8392796;28;19942;-70
2024/03/28 20:43:06;;;;;;;;;;;10.60;99.90;;;;;;8370925;28;19924;-70
2024/03/28 20:47:11;;;;;;;;;;;10.50;99.90;;;;;;8358851;28;19924;-70
2024/03/28 20:51:13;;;;;;;;;;;10.50;99.90;;;;;;8361068;28;19920;-70
2024/03/28 20:55:14;;;;;;;;;;;10.40;99.90;;;;;;8365006;28;19969;-70
2024/03/28 20:59:14;;;;;;;;;;;10.40;99.90;;;;;;8345829;28;19928;-70
2024/03/28 21:03:15;;;;;;;;;;;10.40;99.90;;;;;;8349784;28;20628;-70
2024/03/28 21:11:37;;;;;;;;;;;10.40;99.90;;;;;;8380341;28;20633;-70
2024/03/28 21:15:38;;;;;;;;;;;10.40;99.90;;;;;;8353682;28;20264;-70
2024/03/28 21:19:39;;;;;;;;;;;10.30;99.90;;;;;;8375144;28;20307;-70
2024/03/28 21:23:40;;;;;;;;;;;10.30;99.90;;;;;;8371702;28;20491;-70
2024/03/28 21:27:41;;;;;;;;;;;10.30;99.90;;;;;;8387615;28;20390;-70
2024/03/28 21:31:42;;;;;;;;;;;10.20;99.90;;;;;;8375263;28;19923;-71
2024/03/28 21:35:43;;;;;;;;;;;10.20;99.90;;;;;;8363707;28;20568;-70
2024/03/28 21:39:44;;;;;;;;;;;10.10;99.90;;;;;;8364375;28;20329;-71
2024/03/28 21:43:46;;;;;;;;;;;10.10;99.90;;;;;;8377275;28;19927;-70
2024/03/28 21:47:50;;;;;;;;;;;10.00;99.90;;;;;;8383639;28;19920;-70
2024/03/28 21:51:51;;;;;;;;;;;10.00;99.90;;;;;;8376402;28;19927;-71
2024/03/28 21:56:02;;;;;;;;;;;10.00;99.90;;;;;;8386949;28;19924;-70
2024/03/28 22:00:03;;;;;;;;;;;10.00;99.90;;;;;;8363228;28;20379;-70
2024/03/28 22:04:04;;;;;;;;;;;10.00;99.90;;;;;;8376653;28;20303;-70
2024/03/28 22:08:06;;;;;;;;;;;9.90;99.90;;;;;;8381659;28;20004;-71
2024/03/28 22:12:06;;;;;;;;;;;9.90;99.90;;;;;;8377006;28;19926;-70
2024/03/28 22:16:08;;;;;;;;;;;9.90;99.90;;;;;;8379723;28;19923;-71
2024/03/28 22:20:09;;;;;;;;;;;10.00;99.90;;;;;;8389711;28;20384;-70
2024/03/28 22:24:10;;;;;;;;;;;9.90;99.90;;;;;;8373477;28;20386;-70
2024/03/28 22:28:11;;;;;;;;;;;9.90;99.90;;;;;;8379710;28;20268;-70
2024/03/28 22:32:11;;;;;;;;;;;9.90;99.90;;;;;;8378087;28;19965;-70
2024/03/28 22:36:12;;;;;;;;;;;9.90;99.90;;;;;;8361388;28;19924;-70
2024/03/28 22:40:13;;;;;;;;;;;9.90;99.90;;;;;;8406752;28;20314;-70
2024/03/28 22:44:14;;;;;;;;;;;9.80;99.90;;;;;;8378103;28;19920;-70
2024/03/28 22:48:15;;;;;;;;;;;9.80;99.90;;;;;;8377822;28;19929;-70
2024/03/28 22:52:15;;;;;;;;;;;9.90;99.90;;;;;;8375894;28;19924;-70
2024/03/28 22:56:16;;;;;;;;;;;9.80;99.90;;;;;;8371498;28;20474;-70
2024/03/28 23:00:17;;;;;;;;;;;9.80;99.90;;;;;;8384403;28;20249;-70
2024/03/28 23:04:18;;;;;;;;;;;9.70;99.90;;;;;;8373319;28;19935;-70
2024/03/28 23:08:19;;;;;;;;;;;9.70;99.90;;;;;;8359293;28;20526;-70
2024/03/28 23:12:19;;;;;;;;;;;9.70;99.90;;;;;;8374320;28;20287;-70
2024/03/28 23:16:20;;;;;;;;;;;9.70;99.90;;;;;;8373785;28;19950;-70
2024/03/28 23:20:21;;;;;;;;;;;9.70;99.90;;;;;;8380758;28;20288;-70
2024/03/28 23:24:22;;;;;;;;;;;9.70;99.90;;;;;;8374026;28;19924;-71
2024/03/28 23:28:23;;;;;;;;;;;9.70;99.90;;;;;;8379202;28;19997;-70
2024/03/28 23:32:23;;;;;;;;;;;9.60;99.90;;;;;;8377009;28;20034;-70
2024/03/28 23:36:36;;;;;;;;;;;9.60;99.90;;;;;;8373888;28;20610;-70
2024/03/28 23:40:38;;;;;;;;;;;9.60;99.90;;;;;;8360562;28;19932;-71
2024/03/28 23:49:36;;;;;;;;;;;9.60;99.90;;;;;;8397233;28;19923;-71
2024/03/28 23:54:05;;;;;;;;;;;9.60;99.90;;;;;;8377096;28;20367;-71
2024/03/28 23:58:06;;;;;;;;;;;9.50;99.90;;;;;;8387356;28;20363;-71
